createdAt,value
2018-11-10T00:02:08.810Z,52.03
2018-11-10T00:05:13.389Z,51.43
2018-11-10T00:08:17.959Z,51.97
2018-11-10T00:11:22.514Z,49.80
2018-11-10T00:14:27.164Z,47.40
2018-11-10T00:17:31.691Z,119.07
2018-11-10T00:20:36.537Z,54.70
2018-11-10T00:23:41.182Z,51.37
2018-11-10T00:26:45.746Z,48.53
2018-11-10T00:29:50.368Z,55.23
2018-11-10T00:32:55.062Z,52.80
2018-11-10T00:35:59.665Z,52.50
2018-11-10T00:39:05.132Z,60.07
2018-11-10T00:42:09.787Z,56.70
2018-11-10T00:45:15.932Z,57.20
2018-11-10T00:48:20.448Z,54.27
2018-11-10T00:51:25.308Z,62.17
2018-11-10T00:54:29.976Z,56.60
2018-11-10T00:57:34.709Z,56.33
2018-11-10T01:00:39.512Z,53.33
2018-11-10T01:03:44.113Z,59.73
2018-11-10T01:06:48.677Z,57.57
2018-11-10T01:09:53.149Z,60.37
2018-11-10T01:12:57.709Z,50.77
2018-11-10T01:16:02.450Z,54.63
2018-11-10T01:19:07.567Z,54.87
2018-11-10T01:22:12.243Z,50.90
2018-11-10T01:25:16.802Z,55.03
2018-11-10T01:28:21.314Z,57.23
2018-11-10T01:31:26.143Z,58.37
2018-11-10T01:34:30.706Z,52.90
2018-11-10T01:37:35.395Z,57.67
2018-11-10T01:40:39.960Z,53.53
2018-11-10T01:43:44.476Z,51.10
2018-11-10T01:46:49.881Z,55.00
2018-11-10T01:49:54.680Z,47.40
2018-11-10T01:52:59.254Z,55.40
2018-11-10T01:56:03.891Z,51.60
2018-11-10T01:59:08.695Z,53.77
2018-11-10T02:02:14.014Z,45.13
2018-11-10T02:05:18.717Z,44.20
2018-11-10T02:08:23.267Z,51.67
2018-11-10T02:11:27.772Z,46.77
2018-11-10T02:14:32.416Z,48.47
2018-11-10T02:17:37.025Z,51.67
2018-11-10T02:20:41.801Z,48.00
2018-11-10T02:23:46.439Z,49.37
2018-11-10T02:26:51.146Z,48.83
2018-11-10T02:29:56.067Z,47.13
2018-11-10T02:33:00.641Z,52.87
2018-11-10T02:36:05.289Z,52.83
2018-11-10T02:39:10.116Z,46.47
2018-11-10T02:42:14.792Z,49.07
2018-11-10T02:45:19.435Z,51.77
2018-11-10T02:48:24.006Z,42.17
2018-11-10T02:51:28.519Z,47.07
2018-11-10T02:54:33.210Z,45.83
2018-11-10T02:57:37.802Z,42.37
2018-11-10T03:00:42.595Z,43.60
2018-11-10T03:03:47.323Z,40.17
2018-11-10T03:06:51.957Z,43.03
2018-11-10T03:09:56.624Z,43.00
2018-11-10T03:13:01.464Z,43.40
2018-11-10T03:16:06.088Z,47.43
2018-11-10T03:19:10.643Z,43.50
2018-11-10T03:22:15.227Z,46.93
2018-11-10T03:25:19.831Z,42.17
2018-11-10T03:28:24.386Z,44.87
2018-11-10T03:31:29.287Z,42.77
2018-11-10T03:34:33.959Z,47.07
2018-11-10T03:37:38.639Z,46.63
2018-11-10T03:40:43.296Z,48.07
2018-11-10T03:43:47.864Z,43.80
2018-11-10T03:46:52.836Z,46.80
2018-11-10T03:49:57.385Z,53.00
2018-11-10T03:53:01.975Z,51.23
2018-11-10T03:56:07.316Z,47.07
2018-11-10T03:59:11.922Z,47.67
2018-11-10T04:02:16.474Z,48.97
2018-11-10T04:05:20.996Z,47.17
2018-11-10T04:08:25.604Z,51.00
2018-11-10T04:11:30.162Z,47.27
2018-11-10T04:14:34.701Z,45.33
2018-11-10T04:17:39.314Z,49.03
2018-11-10T04:20:44.000Z,47.73
2018-11-10T04:23:48.778Z,55.23
2018-11-10T04:26:53.351Z,43.90
2018-11-10T04:29:58.018Z,51.63
2018-11-10T04:33:02.554Z,52.40
2018-11-10T04:36:07.192Z,59.63
2018-11-10T04:39:11.857Z,55.70
2018-11-10T04:42:16.479Z,58.27
2018-11-10T04:45:21.118Z,54.50
2018-11-10T04:48:25.661Z,57.83
2018-11-10T04:51:30.378Z,58.63
2018-11-10T04:54:35.024Z,55.70
2018-11-10T04:57:39.751Z,57.27
2018-11-10T05:00:45.106Z,55.50
2018-11-10T05:03:49.637Z,58.30
2018-11-10T05:06:54.175Z,63.77
2018-11-10T05:09:58.778Z,68.60
2018-11-10T05:13:03.459Z,60.83
2018-11-10T05:16:07.971Z,65.13
2018-11-10T05:19:12.507Z,72.07
2018-11-10T05:22:17.135Z,63.43
2018-11-10T05:25:21.654Z,65.13
2018-11-10T05:28:26.245Z,65.40
2018-11-10T05:31:30.883Z,70.93
2018-11-10T05:34:35.524Z,68.20
2018-11-10T05:37:40.179Z,64.60
2018-11-10T05:40:44.684Z,64.40
2018-11-10T05:43:49.260Z,71.73
2018-11-10T05:46:53.876Z,72.80
2018-11-10T05:49:58.517Z,68.10
2018-11-10T05:53:03.128Z,67.40
2018-11-10T05:56:09.061Z,71.20
2018-11-10T05:59:13.770Z,71.73
2018-11-10T06:02:18.334Z,72.33
2018-11-10T06:05:23.136Z,71.30
2018-11-10T06:08:27.764Z,71.63
2018-11-10T06:11:32.302Z,71.50
2018-11-10T06:14:37.062Z,75.73
2018-11-10T06:17:41.691Z,74.90
2018-11-10T06:20:46.271Z,73.40
2018-11-10T06:23:50.870Z,79.10
2018-11-10T06:26:55.473Z,80.27
2018-11-10T06:30:00.098Z,67.43
2018-11-10T06:33:04.782Z,72.90
2018-11-10T06:36:09.726Z,77.77
2018-11-10T06:39:14.517Z,70.37
2018-11-10T06:42:19.236Z,63.90
2018-11-10T06:45:23.895Z,69.83
2018-11-10T06:48:28.397Z,67.97
2018-11-10T06:51:33.061Z,60.70
2018-11-10T06:54:37.647Z,86.63
2018-11-10T06:57:42.233Z,75.73
2018-11-10T07:00:46.836Z,174.93
2018-11-10T07:03:51.427Z,115.93
2018-11-10T07:06:56.030Z,69.83
2018-11-10T07:10:00.642Z,58.37
2018-11-10T07:13:05.718Z,63.13
2018-11-10T07:16:10.438Z,60.00
2018-11-10T07:19:15.088Z,59.17
2018-11-10T07:22:19.661Z,56.70
2018-11-10T07:25:24.189Z,54.73
2018-11-10T07:28:28.860Z,59.83
2018-11-10T07:31:33.583Z,55.03
2018-11-10T07:34:38.142Z,54.20
2018-11-10T07:37:42.680Z,54.97
2018-11-10T07:40:47.179Z,55.43
2018-11-10T07:43:51.826Z,46.00
2018-11-10T07:46:56.647Z,45.03
2018-11-10T07:50:01.176Z,44.23
2018-11-10T07:53:05.901Z,45.33
2018-11-10T07:56:10.412Z,45.27
2018-11-10T07:59:15.114Z,44.37
2018-11-10T08:02:19.741Z,45.00
2018-11-10T08:05:24.423Z,44.43
2018-11-10T08:08:29.154Z,44.30
2018-11-10T08:11:33.899Z,42.63
2018-11-10T08:14:38.523Z,44.93
2018-11-10T08:17:43.183Z,41.43
2018-11-10T08:20:47.743Z,45.90
2018-11-10T08:23:52.379Z,42.37
2018-11-10T08:26:57.037Z,43.87
2018-11-10T08:30:01.627Z,40.83
2018-11-10T08:33:06.764Z,46.23
2018-11-10T08:36:11.455Z,39.60
2018-11-10T08:39:16.130Z,38.03
2018-11-10T08:42:20.717Z,40.87
2018-11-10T08:45:25.444Z,40.17
2018-11-10T08:48:30.079Z,43.77
2018-11-10T08:51:34.704Z,37.23
2018-11-10T08:54:39.648Z,38.90
2018-11-10T08:57:44.616Z,40.57
2018-11-10T09:00:49.126Z,41.00
2018-11-10T09:03:53.682Z,38.57
2018-11-10T09:06:58.381Z,35.63
2018-11-10T09:10:03.025Z,37.50
2018-11-10T09:13:11.442Z,39.27
2018-11-10T09:16:15.931Z,36.80
2018-11-10T09:19:20.637Z,35.87
2018-11-10T09:22:25.261Z,34.17
2018-11-10T09:25:29.826Z,33.50
2018-11-10T09:28:34.395Z,33.07
2018-11-10T09:31:39.101Z,30.47
2018-11-10T09:34:43.789Z,31.83
2018-11-10T09:37:48.511Z,31.30
2018-11-10T09:40:53.135Z,33.27
2018-11-10T09:43:57.876Z,31.73
2018-11-10T09:47:02.473Z,34.93
2018-11-10T09:50:14.476Z,34.47
2018-11-10T09:53:19.041Z,37.13
2018-11-10T09:56:23.683Z,30.57
2018-11-10T09:59:28.386Z,30.27
2018-11-10T10:02:33.343Z,31.23
2018-11-10T10:05:37.652Z,32.17
2018-11-10T10:08:42.272Z,40.10
2018-11-10T10:11:46.839Z,29.33
2018-11-10T10:14:51.444Z,37.53
2018-11-10T10:17:56.197Z,35.57
2018-11-10T10:21:00.819Z,41.57
2018-11-10T10:24:05.840Z,37.83
2018-11-10T10:27:11.138Z,37.27
2018-11-10T10:30:18.108Z,36.00
2018-11-10T10:33:22.693Z,32.07
2018-11-10T10:36:27.567Z,32.60
2018-11-10T10:39:32.153Z,28.90
2018-11-10T10:42:36.921Z,31.67
2018-11-10T10:45:42.172Z,31.77
2018-11-10T10:48:46.888Z,45.07
2018-11-10T10:51:51.388Z,34.00
2018-11-10T10:54:56.083Z,34.53
2018-11-10T10:58:00.765Z,31.87
2018-11-10T11:01:10.424Z,35.67
2018-11-10T11:04:20.061Z,31.23
2018-11-10T11:07:26.257Z,31.23
2018-11-10T11:10:31.050Z,32.57
2018-11-10T11:13:35.716Z,29.60
2018-11-10T11:16:40.541Z,33.37
2018-11-10T11:19:45.165Z,33.97
2018-11-10T11:22:49.751Z,36.57
2018-11-10T11:25:54.248Z,31.10
2018-11-10T11:28:59.210Z,31.20
2018-11-10T11:32:03.863Z,28.67
2018-11-10T11:35:11.007Z,30.17
2018-11-10T11:38:15.617Z,30.70
2018-11-10T11:41:20.308Z,29.00
2018-11-10T11:44:24.927Z,26.60
2018-11-10T11:47:29.568Z,28.03
2018-11-10T11:50:34.365Z,29.97
2018-11-10T11:53:38.993Z,28.00
2018-11-10T11:56:43.678Z,28.80
2018-11-10T11:59:48.214Z,29.50
2018-11-10T12:02:52.879Z,26.27
2018-11-10T12:05:57.480Z,25.83
2018-11-10T12:09:02.212Z,31.23
2018-11-10T12:12:07.898Z,26.37
2018-11-10T12:15:13.721Z,26.33
2018-11-10T12:18:18.677Z,28.00
2018-11-10T12:21:23.246Z,24.30
2018-11-10T12:24:27.911Z,34.50
2018-11-10T12:27:32.932Z,25.83
2018-11-10T12:30:37.637Z,26.87
2018-11-10T12:33:42.392Z,35.57
2018-11-10T12:36:47.002Z,24.60
2018-11-10T12:39:51.888Z,26.33
2018-11-10T12:42:56.592Z,21.23
2018-11-10T12:46:01.330Z,23.73
2018-11-10T12:49:06.542Z,25.23
2018-11-10T12:52:11.161Z,26.57
2018-11-10T12:55:16.525Z,25.67
2018-11-10T12:58:21.139Z,26.17
2018-11-10T13:01:25.911Z,22.50
2018-11-10T13:04:30.841Z,25.63
2018-11-10T13:07:35.455Z,26.47
2018-11-10T13:10:40.205Z,27.87
2018-11-10T13:13:44.793Z,27.73
2018-11-10T13:16:50.760Z,23.63
2018-11-10T13:19:55.439Z,22.53
2018-11-10T13:23:00.331Z,24.83
2018-11-10T13:26:05.068Z,24.17
2018-11-10T13:29:09.698Z,24.23
2018-11-10T13:32:14.317Z,23.73
2018-11-10T13:35:19.334Z,24.73
2018-11-10T13:38:24.036Z,25.20
2018-11-10T13:41:28.648Z,30.37
2018-11-10T13:44:33.301Z,25.13
2018-11-10T13:47:38.080Z,27.53
2018-11-10T13:50:43.078Z,28.53
2018-11-10T13:53:47.725Z,32.43
2018-11-10T13:56:52.531Z,29.70
2018-11-10T13:59:57.376Z,24.37
2018-11-10T14:03:02.092Z,24.97
2018-11-10T14:06:08.082Z,23.37
2018-11-10T14:09:13.190Z,26.37
2018-11-10T14:12:18.048Z,25.40
2018-11-10T14:15:22.674Z,25.80
2018-11-10T14:18:27.317Z,25.23
2018-11-10T14:21:31.939Z,25.77
2018-11-10T14:24:36.527Z,23.67
2018-11-10T14:27:42.025Z,24.80
2018-11-10T14:30:46.708Z,24.57
2018-11-10T14:33:51.430Z,22.57
2018-11-10T14:36:56.006Z,26.73
2018-11-10T14:40:00.750Z,28.00
2018-11-10T14:43:05.399Z,30.63
2018-11-10T14:46:10.142Z,28.03
2018-11-10T14:49:14.885Z,28.83
2018-11-10T14:52:19.463Z,26.30
2018-11-10T14:55:24.077Z,30.47
2018-11-10T14:58:28.837Z,23.97
2018-11-10T15:01:33.650Z,26.27
2018-11-10T15:04:38.352Z,25.63
2018-11-10T15:07:43.675Z,29.97
2018-11-10T15:10:48.328Z,28.33
2018-11-10T15:13:52.962Z,25.80
2018-11-10T15:16:57.580Z,24.63
2018-11-10T15:20:02.167Z,28.13
2018-11-10T15:23:07.319Z,26.40
2018-11-10T15:26:11.851Z,25.13
2018-11-10T15:29:16.562Z,24.73
2018-11-10T15:32:21.122Z,22.77
2018-11-10T15:35:25.983Z,25.33
2018-11-10T15:38:30.798Z,27.60
2018-11-10T15:41:35.607Z,27.27
2018-11-10T15:44:40.220Z,24.83
2018-11-10T15:47:45.265Z,29.10
2018-11-10T15:50:51.134Z,26.43
2018-11-10T15:53:56.053Z,23.07
2018-11-10T15:57:00.877Z,23.93
2018-11-10T16:00:05.931Z,25.20
2018-11-10T16:03:10.754Z,23.80
2018-11-10T16:06:15.347Z,20.30
2018-11-10T16:09:20.158Z,26.03
2018-11-10T16:12:25.995Z,24.20
2018-11-10T16:15:30.731Z,24.37
2018-11-10T16:18:35.452Z,25.80
2018-11-10T16:21:40.283Z,24.87
2018-11-10T16:24:45.027Z,26.90
2018-11-10T16:27:49.931Z,26.20
2018-11-10T16:30:54.428Z,31.27
2018-11-10T16:33:59.291Z,29.50
2018-11-10T16:37:04.001Z,25.33
2018-11-10T16:40:11.743Z,21.43
2018-11-10T16:43:16.467Z,46.50
2018-11-10T16:46:21.053Z,50.27
2018-11-10T16:49:25.969Z,29.80
2018-11-10T16:52:30.802Z,27.07
2018-11-10T16:55:35.700Z,28.40
2018-11-10T16:58:40.487Z,26.73
2018-11-10T17:01:45.656Z,23.63
2018-11-10T17:04:50.443Z,24.97
2018-11-10T17:07:55.092Z,24.97
2018-11-10T17:10:59.840Z,25.73
2018-11-10T17:14:04.986Z,23.63
2018-11-10T17:17:09.635Z,28.17
2018-11-10T17:20:15.985Z,23.53
2018-11-10T17:23:20.631Z,25.27
2018-11-10T17:26:25.203Z,28.30
2018-11-10T17:29:29.783Z,36.43
2018-11-10T17:32:34.399Z,33.60
2018-11-10T17:35:39.233Z,29.43
2018-11-10T17:38:43.913Z,35.57
2018-11-10T17:41:48.574Z,34.77
2018-11-10T17:44:53.324Z,33.97
2018-11-10T17:47:58.043Z,33.23
2018-11-10T17:51:02.705Z,32.50
2018-11-10T17:54:07.261Z,33.90
2018-11-10T17:57:11.998Z,30.97
2018-11-10T18:00:16.731Z,30.40
2018-11-10T18:03:21.953Z,32.20
2018-11-10T18:06:26.529Z,33.97
2018-11-10T18:09:31.184Z,30.47
2018-11-10T18:12:35.998Z,32.37
2018-11-10T18:15:40.618Z,29.70
2018-11-10T18:18:45.562Z,33.83
2018-11-10T18:21:50.090Z,33.03
2018-11-10T18:24:54.808Z,34.90
2018-11-10T18:27:59.349Z,35.70
2018-11-10T18:31:03.871Z,32.37
2018-11-10T18:34:08.582Z,35.17
2018-11-10T18:37:13.166Z,37.87
2018-11-10T18:40:17.785Z,39.80
2018-11-10T18:43:22.502Z,38.30
2018-11-10T18:46:27.044Z,41.50
2018-11-10T18:49:31.792Z,39.40
2018-11-10T18:52:36.442Z,36.30
2018-11-10T18:55:41.082Z,43.73
2018-11-10T18:58:45.746Z,38.53
2018-11-10T19:01:50.439Z,38.53
2018-11-10T19:04:55.080Z,37.70
2018-11-10T19:07:59.817Z,41.03
2018-11-10T19:11:04.645Z,38.60
2018-11-10T19:14:09.307Z,38.60
2018-11-10T19:17:13.923Z,39.10
2018-11-10T19:20:19.106Z,38.30
2018-11-10T19:23:23.822Z,35.53
2018-11-10T19:26:28.441Z,36.67
2018-11-10T19:29:33.204Z,38.67
2018-11-10T19:32:37.901Z,33.80
2018-11-10T19:35:42.660Z,39.00
2018-11-10T19:38:47.440Z,38.37
2018-11-10T19:41:52.025Z,38.13
2018-11-10T19:44:56.728Z,32.60
2018-11-10T19:48:01.427Z,38.77
2018-11-10T19:51:13.222Z,39.57
2018-11-10T19:54:17.755Z,34.13
2018-11-10T19:57:22.454Z,40.57
2018-11-10T20:00:27.059Z,34.77
2018-11-10T20:03:31.997Z,45.43
2018-11-10T20:06:36.729Z,41.33
2018-11-10T20:09:41.372Z,37.77
2018-11-10T20:12:46.239Z,43.37
2018-11-10T20:15:50.847Z,40.90
2018-11-10T20:18:55.494Z,42.10
2018-11-10T20:22:00.286Z,47.73
2018-11-10T20:25:05.995Z,42.17
2018-11-10T20:28:10.580Z,48.83
2018-11-10T20:31:15.394Z,48.97
2018-11-10T20:34:20.234Z,42.40
2018-11-10T20:37:24.960Z,38.07
2018-11-10T20:40:29.654Z,40.37
2018-11-10T20:43:34.323Z,38.23
2018-11-10T20:46:38.936Z,40.73
2018-11-10T20:49:43.713Z,39.77
2018-11-10T20:52:48.219Z,39.73
2018-11-10T20:55:52.827Z,39.73
2018-11-10T20:58:57.564Z,37.30
2018-11-10T21:02:02.263Z,43.67
2018-11-10T21:05:08.585Z,42.77
2018-11-10T21:08:13.337Z,40.30
2018-11-10T21:11:18.914Z,41.83
2018-11-10T21:14:23.600Z,42.57
2018-11-10T21:17:28.429Z,43.37
2018-11-10T21:20:33.135Z,46.67
2018-11-10T21:23:37.886Z,44.27
2018-11-10T21:26:42.581Z,43.80
2018-11-10T21:29:47.173Z,47.70
2018-11-10T21:32:51.884Z,47.80
2018-11-10T21:35:56.476Z,47.17
2018-11-10T21:39:01.048Z,48.80
2018-11-10T21:42:05.784Z,47.40
2018-11-10T21:45:11.538Z,44.13
2018-11-10T21:48:16.243Z,49.23
2018-11-10T21:51:20.975Z,50.63
2018-11-10T21:54:25.657Z,48.63
2018-11-10T21:57:30.498Z,50.20
2018-11-10T22:00:35.098Z,40.00
2018-11-10T22:03:39.783Z,46.33
2018-11-10T22:06:44.384Z,47.57
2018-11-10T22:09:49.146Z,46.83
2018-11-10T22:12:53.778Z,46.30
2018-11-10T22:15:58.469Z,48.03
2018-11-10T22:19:03.114Z,48.30
2018-11-10T22:22:07.793Z,48.97
2018-11-10T22:25:13.249Z,46.40
2018-11-10T22:28:17.756Z,46.10
2018-11-10T22:31:22.408Z,49.30
2018-11-10T22:34:26.900Z,47.10
2018-11-10T22:37:31.538Z,55.00
2018-11-10T22:40:36.013Z,50.80
2018-11-10T22:43:40.525Z,49.83
2018-11-10T22:46:45.112Z,48.37
2018-11-10T22:49:49.600Z,45.73
2018-11-10T22:52:54.093Z,46.60
2018-11-10T22:55:58.615Z,47.57
2018-11-10T22:59:03.140Z,47.63
2018-11-10T23:02:07.857Z,45.47
2018-11-10T23:05:12.400Z,48.73
2018-11-10T23:08:16.980Z,51.03
2018-11-10T23:11:21.527Z,48.77
2018-11-10T23:14:26.163Z,47.50
2018-11-10T23:17:30.742Z,46.00
2018-11-10T23:20:35.335Z,49.67
2018-11-10T23:23:39.944Z,51.20
2018-11-10T23:26:44.478Z,49.33
2018-11-10T23:29:49.041Z,47.40
2018-11-10T23:32:53.680Z,49.80
2018-11-10T23:35:58.239Z,50.23
2018-11-10T23:39:03.091Z,48.13
2018-11-10T23:42:07.763Z,53.90
2018-11-10T23:45:13.070Z,47.03
2018-11-10T23:48:17.742Z,49.70
2018-11-10T23:51:22.255Z,52.53
2018-11-10T23:54:26.861Z,49.67
2018-11-10T23:57:31.466Z,49.20
